Time;durP1;ratioP1;P1;durP2;ratioP2;P2;SDS_P1;SDS_P2;PMS_P1;PMS_P2;Temp;Humidity;BMP_temperature;BMP_pressure;BME280_temperature;BME280_humidity;BME280_pressure;Samples;Min_cycle;Max_cycle;Signal;HPM_P1;HPM_P2
2022/08/15 00:00:54;;;;;;;11.23;3.17;;;22.60;99.90;;;;;;5069141;28;20133;-82
2022/08/15 00:03:31;;;;;;;7.97;3.60;;;22.50;99.90;;;;;;5041619;28;20522;-82
2022/08/15 00:06:00;;;;;;;4.45;3.13;;;22.50;99.90;;;;;;5064639;28;20522;-82
2022/08/15 00:08:28;;;;;;;6.20;2.95;;;22.50;99.90;;;;;;5065557;28;20048;-82
2022/08/15 00:10:58;;;;;;;5.75;3.60;;;22.40;99.90;;;;;;5067272;28;20469;-82
2022/08/15 00:13:29;;;;;;;4.75;3.15;;;22.40;99.90;;;;;;5066638;28;20035;-82
2022/08/15 00:15:56;;;;;;;4.82;3.35;;;22.40;99.90;;;;;;5065752;28;20036;-82
2022/08/15 00:18:24;;;;;;;4.22;3.17;;;22.30;99.90;;;;;;5066063;28;20060;-82
2022/08/15 00:20:50;;;;;;;4.78;2.88;;;22.30;99.90;;;;;;5065752;28;20028;-82
2022/08/15 00:23:17;;;;;;;5.35;3.47;;;22.30;99.90;;;;;;5066706;28;20028;-82
2022/08/15 00:25:48;;;;;;;6.97;3.80;;;22.30;99.90;;;;;;5063587;28;20511;-82
2022/08/15 00:28:14;;;;;;;5.32;3.53;;;22.20;99.90;;;;;;5065222;28;20056;-82
2022/08/15 00:30:41;;;;;;;8.57;3.88;;;22.20;99.90;;;;;;5065170;28;20043;-82
2022/08/15 00:33:07;;;;;;;4.93;3.42;;;22.20;99.90;;;;;;5063877;28;20024;-81
2022/08/15 00:35:36;;;;;;;6.63;3.90;;;22.20;99.90;;;;;;5069685;28;20082;-82
2022/08/15 00:38:23;;;;;;;8.35;3.65;;;22.30;99.90;;;;;;5062714;28;20111;-81
2022/08/15 00:43:40;;;;;;;9.23;3.53;;;22.50;99.90;;;;;;5065964;28;20549;-82
2022/08/15 00:46:08;;;;;;;4.60;3.45;;;22.50;99.90;;;;;;5066454;28;20051;-80
2022/08/15 00:48:43;;;;;;;5.03;3.75;;;22.50;99.90;;;;;;5066459;28;20036;-81
2022/08/15 00:51:21;;;;;;;4.75;3.17;;;22.50;99.90;;;;;;5056627;28;20453;-82
2022/08/15 00:53:53;;;;;;;4.78;3.63;;;22.40;99.90;;;;;;5060879;28;20029;-83
2022/08/15 00:56:20;;;;;;;8.02;3.10;;;22.40;99.90;;;;;;5068180;28;20082;-82
2022/08/15 00:58:46;;;;;;;7.43;3.90;;;22.40;99.90;;;;;;5066930;28;20082;-82
2022/08/15 01:01:14;;;;;;;4.72;3.55;;;22.30;99.90;;;;;;5066092;28;20025;-82
2022/08/15 01:03:44;;;;;;;4.60;3.15;;;22.20;99.90;;;;;;5064952;28;20032;-82
2022/08/15 01:06:10;;;;;;;4.93;2.85;;;22.10;99.90;;;;;;5064694;28;20072;-82
2022/08/15 01:08:38;;;;;;;5.43;3.22;;;22.10;99.90;;;;;;5065383;28;20024;-82
2022/08/15 01:11:11;;;;;;;6.15;3.50;;;22.00;99.90;;;;;;5064657;28;20059;-82
2022/08/15 01:13:37;;;;;;;4.45;3.38;;;22.00;99.90;;;;;;5060856;28;20024;-82
2022/08/15 01:16:03;;;;;;;3.72;2.83;;;21.90;99.90;;;;;;5062559;28;20063;-82
2022/08/15 01:18:29;;;;;;;6.97;3.63;;;21.90;99.90;;;;;;5060815;28;20049;-82
2022/08/15 01:21:00;;;;;;;5.35;3.40;;;21.80;99.90;;;;;;5063352;28;20562;-81
2022/08/15 01:23:58;;;;;;;5.10;3.00;;;21.70;99.90;;;;;;5057530;28;20033;-81
2022/08/15 01:26:25;;;;;;;5.97;3.38;;;21.70;99.90;;;;;;5070575;28;20043;-82
2022/08/15 01:28:53;;;;;;;6.45;3.92;;;21.60;99.90;;;;;;5064177;28;20391;-82
2022/08/15 01:31:20;;;;;;;5.65;3.75;;;21.60;99.90;;;;;;5064110;28;20025;-81
2022/08/15 01:33:50;;;;;;;5.93;3.38;;;21.50;99.90;;;;;;5062136;28;20074;-82
2022/08/15 01:36:17;;;;;;;7.70;3.78;;;21.50;99.90;;;;;;5065105;28;20036;-82
2022/08/15 01:38:48;;;;;;;5.25;3.72;;;21.50;99.90;;;;;;5065086;28;20620;-82
2022/08/15 01:41:13;;;;;;;4.68;3.25;;;21.40;99.90;;;;;;5068891;28;20024;-82
2022/08/15 01:43:49;;;;;;;4.97;3.50;;;21.40;99.90;;;;;;5067955;28;20033;-82
2022/08/15 01:46:15;;;;;;;7.20;3.88;;;21.40;99.90;;;;;;5059766;28;20475;-81
2022/08/15 01:48:47;;;;;;;6.63;3.65;;;21.40;99.90;;;;;;5063906;28;20028;-81
2022/08/15 01:51:14;;;;;;;4.22;3.00;;;21.30;99.90;;;;;;5067249;28;20039;-82
2022/08/15 01:53:47;;;;;;;6.18;3.92;;;21.30;99.90;;;;;;5062277;28;20028;-82
2022/08/15 01:56:27;;;;;;;5.00;3.53;;;21.30;99.90;;;;;;5067016;28;20028;-82
2022/08/15 01:58:53;;;;;;;6.40;3.63;;;21.20;99.90;;;;;;5070919;28;20832;-82
2022/08/15 02:01:34;;;;;;;5.45;3.60;;;21.20;99.90;;;;;;5063421;28;20119;-82
2022/08/15 02:04:00;;;;;;;6.60;3.50;;;21.20;99.90;;;;;;5063531;28;20470;-82
2022/08/15 02:06:29;;;;;;;6.95;3.83;;;21.10;99.90;;;;;;5063395;28;20571;-82
2022/08/15 02:08:55;;;;;;;5.40;3.60;;;21.10;99.90;;;;;;5062466;28;20036;-82
2022/08/15 02:11:25;;;;;;;4.75;3.47;;;21.10;99.90;;;;;;5064597;28;20461;-82
2022/08/15 02:13:56;;;;;;;4.97;3.55;;;21.00;99.90;;;;;;5062344;28;20024;-82
2022/08/15 02:16:25;;;;;;;8.10;4.10;;;21.00;99.90;;;;;;5062350;28;20028;-82
2022/08/15 02:18:52;;;;;;;5.93;3.35;;;21.00;99.90;;;;;;5061548;28;20142;-82
2022/08/15 02:21:18;;;;;;;5.45;3.38;;;21.00;99.90;;;;;;5064616;28;20020;-82
2022/08/15 02:23:43;;;;;;;5.75;3.35;;;20.90;99.90;;;;;;5065183;28;20035;-82
2022/08/15 02:26:09;;;;;;;5.57;3.35;;;20.90;99.90;;;;;;5066632;28;20387;-82
2022/08/15 02:28:38;;;;;;;4.82;3.70;;;20.90;99.90;;;;;;5065194;28;20025;-82
2022/08/15 02:31:10;;;;;;;6.53;3.92;;;20.90;99.90;;;;;;5066608;28;20570;-82
2022/08/15 02:33:36;;;;;;;6.60;3.65;;;20.80;99.90;;;;;;5068134;28;20039;-82
2022/08/15 02:36:02;;;;;;;5.20;3.53;;;20.90;99.90;;;;;;5068396;28;20062;-82
2022/08/15 02:38:30;;;;;;;5.90;3.47;;;20.90;99.90;;;;;;5068536;28;20385;-82
2022/08/15 02:40:56;;;;;;;6.65;3.38;;;20.80;99.90;;;;;;5063755;28;20037;-82
2022/08/15 02:43:22;;;;;;;5.90;3.50;;;20.80;99.90;;;;;;5061472;28;20113;-82
2022/08/15 02:45:49;;;;;;;5.90;3.97;;;20.80;99.90;;;;;;5067008;28;20056;-82
2022/08/15 02:48:14;;;;;;;6.43;3.78;;;20.70;99.90;;;;;;5073543;28;20035;-82
2022/08/15 02:50:41;;;;;;;6.00;3.90;;;20.70;99.90;;;;;;5074158;28;20032;-82
2022/08/15 02:53:15;;;;;;;9.45;3.95;;;20.70;99.90;;;;;;5075701;28;20055;-82
2022/08/15 02:55:43;;;;;;;5.90;3.83;;;20.70;99.90;;;;;;5070181;28;20033;-81
2022/08/15 02:58:11;;;;;;;4.90;3.35;;;20.60;99.90;;;;;;5068401;28;20415;-82
2022/08/15 03:00:37;;;;;;;5.97;3.65;;;20.60;99.90;;;;;;5069834;28;20027;-82
2022/08/15 03:03:06;;;;;;;6.22;3.72;;;20.60;99.90;;;;;;5071849;28;20020;-82
2022/08/15 03:05:34;;;;;;;5.57;3.13;;;20.50;99.90;;;;;;5077456;28;20105;-82
2022/08/15 03:08:00;;;;;;;5.55;3.40;;;20.50;99.90;;;;;;5066164;28;20024;-82
2022/08/15 03:10:26;;;;;;;6.20;3.63;;;20.50;99.90;;;;;;5080208;28;20039;-82
2022/08/15 03:12:55;;;;;;;7.80;4.13;;;20.50;99.90;;;;;;5070465;28;20064;-82
2022/08/15 03:15:24;;;;;;;6.10;3.85;;;20.40;99.90;;;;;;5067656;28;20078;-82
2022/08/15 03:17:50;;;;;;;7.18;3.65;;;20.40;99.90;;;;;;5067370;28;20033;-82
2022/08/15 03:20:16;;;;;;;4.57;3.22;;;20.50;99.90;;;;;;5071001;28;20021;-82
2022/08/15 03:22:44;;;;;;;5.25;3.75;;;20.40;99.90;;;;;;5069786;28;20079;-82
2022/08/15 03:25:10;;;;;;;4.55;3.28;;;20.40;99.90;;;;;;5067444;28;20047;-82
2022/08/15 03:27:35;;;;;;;5.80;3.40;;;20.40;99.90;;;;;;5058817;28;20112;-82
2022/08/15 03:30:02;;;;;;;6.45;3.83;;;20.30;99.90;;;;;;5068931;28;20036;-82
2022/08/15 03:32:27;;;;;;;11.57;3.50;;;20.30;99.90;;;;;;5068978;28;20131;-82
2022/08/15 03:34:53;;;;;;;7.20;4.45;;;20.30;99.90;;;;;;5070842;28;20103;-82
2022/08/15 03:37:18;;;;;;;6.25;3.80;;;20.30;99.90;;;;;;5068877;28;20409;-82
2022/08/15 03:39:44;;;;;;;7.90;4.20;;;20.30;99.90;;;;;;5068742;28;20057;-82
2022/08/15 03:42:10;;;;;;;6.03;3.67;;;20.30;99.90;;;;;;5071662;28;20059;-82
2022/08/15 03:44:36;;;;;;;5.43;3.67;;;20.30;99.90;;;;;;5069510;28;20036;-82
2022/08/15 03:47:02;;;;;;;5.65;3.78;;;20.30;99.90;;;;;;5079839;28;20028;-82
2022/08/15 03:49:27;;;;;;;4.53;3.40;;;20.30;99.90;;;;;;5067371;28;20040;-82
2022/08/15 03:51:54;;;;;;;7.38;3.80;;;20.30;99.90;;;;;;5069412;28;20031;-82
2022/08/15 03:54:19;;;;;;;6.85;4.68;;;20.40;99.90;;;;;;5069454;28;20024;-82
2022/08/15 03:56:45;;;;;;;7.63;3.78;;;20.50;99.90;;;;;;5070001;28;20078;-82
2022/08/15 03:59:10;;;;;;;5.53;4.10;;;20.60;99.90;;;;;;5069888;28;20553;-82
2022/08/15 04:01:37;;;;;;;5.85;4.13;;;20.60;99.90;;;;;;5065934;28;20417;-82
2022/08/15 04:04:04;;;;;;;5.15;3.65;;;20.60;99.90;;;;;;5068510;28;20727;-82
2022/08/15 04:06:29;;;;;;;6.22;4.13;;;20.60;99.90;;;;;;5061882;28;20055;-82
2022/08/15 04:08:56;;;;;;;6.05;4.00;;;20.60;99.90;;;;;;5066649;28;20028;-82
2022/08/15 04:11:27;;;;;;;5.78;4.03;;;20.60;99.90;;;;;;5067488;28;20033;-82
2022/08/15 04:13:54;;;;;;;8.88;4.40;;;20.50;99.90;;;;;;5072772;28;20037;-81
2022/08/15 04:16:29;;;;;;;7.10;4.40;;;20.50;99.90;;;;;;5066077;28;20178;-82
2022/08/15 04:18:55;;;;;;;6.97;4.55;;;20.40;99.90;;;;;;5067539;28;20120;-82
2022/08/15 04:21:20;;;;;;;6.82;3.72;;;20.40;99.90;;;;;;5063884;28;20115;-81
2022/08/15 04:23:47;;;;;;;5.47;4.05;;;20.40;99.90;;;;;;5066736;28;20031;-82
2022/08/15 04:26:13;;;;;;;7.93;4.20;;;20.30;99.90;;;;;;5062638;28;20017;-82
2022/08/15 04:28:38;;;;;;;7.60;4.55;;;20.30;99.90;;;;;;5064089;28;20268;-82
2022/08/15 04:31:09;;;;;;;5.30;4.00;;;20.30;99.90;;;;;;5066289;28;20035;-82
2022/08/15 04:33:35;;;;;;;5.78;3.65;;;20.30;99.90;;;;;;5066244;28;20039;-82
2022/08/15 04:36:11;;;;;;;8.70;4.15;;;20.30;99.90;;;;;;5065575;28;20033;-82
2022/08/15 04:38:39;;;;;;;7.30;4.28;;;20.40;99.90;;;;;;5065452;28;20021;-82
2022/08/15 04:41:06;;;;;;;6.68;4.22;;;20.40;99.90;;;;;;5063828;28;20036;-82
2022/08/15 04:43:33;;;;;;;6.47;4.45;;;20.50;99.90;;;;;;5066100;28;20024;-82
2022/08/15 04:45:59;;;;;;;6.15;3.97;;;20.40;99.90;;;;;;5067772;28;20032;-82
2022/08/15 04:48:25;;;;;;;14.18;4.72;;;20.40;99.90;;;;;;5067903;28;20138;-82
2022/08/15 04:50:53;;;;;;;6.38;4.18;;;20.50;99.90;;;;;;5063483;28;20484;-82
2022/08/15 04:53:21;;;;;;;6.93;4.05;;;20.40;99.90;;;;;;5067073;28;20389;-82
2022/08/15 04:55:49;;;;;;;6.25;3.85;;;20.50;99.90;;;;;;5067548;28;20028;-82
2022/08/15 04:58:15;;;;;;;7.18;4.65;;;20.60;99.90;;;;;;5068246;28;20024;-81
2022/08/15 05:00:55;;;;;;;5.80;4.15;;;20.70;99.90;;;;;;5064604;28;20090;-82
2022/08/15 05:03:21;;;;;;;6.07;3.88;;;20.70;99.90;;;;;;5072554;28;20134;-81
2022/08/15 05:05:51;;;;;;;7.32;4.32;;;20.80;99.90;;;;;;5067753;28;20152;-81
2022/08/15 05:08:18;;;;;;;13.23;4.43;;;20.80;99.90;;;;;;5073207;28;20158;-81
2022/08/15 05:10:48;;;;;;;7.35;4.57;;;20.80;99.90;;;;;;5068752;28;20550;-82
2022/08/15 05:13:16;;;;;;;7.20;4.70;;;20.90;99.90;;;;;;5062047;28;20055;-81
2022/08/15 05:15:44;;;;;;;7.63;4.63;;;20.90;99.90;;;;;;5066050;28;20024;-81
2022/08/15 05:18:10;;;;;;;7.13;4.20;;;20.90;99.90;;;;;;5065100;28;20427;-81
2022/08/15 05:20:36;;;;;;;6.15;4.47;;;20.80;99.90;;;;;;5063594;28;20117;-81
2022/08/15 05:23:11;;;;;;;8.20;4.28;;;20.70;99.90;;;;;;5065050;28;20458;-81
2022/08/15 05:25:41;;;;;;;5.53;3.85;;;20.70;99.90;;;;;;5067956;28;20021;-82
2022/08/15 05:28:07;;;;;;;9.63;5.50;;;20.90;99.90;;;;;;5067063;28;20036;-82
2022/08/15 05:30:33;;;;;;;5.78;3.95;;;21.00;99.90;;;;;;5060537;28;20041;-82
2022/08/15 05:33:07;;;;;;;6.47;3.60;;;21.10;99.90;;;;;;5066503;28;20025;-82
2022/08/15 05:35:34;;;;;;;6.60;4.47;;;21.20;99.90;;;;;;5063718;28;20429;-82
2022/08/15 05:38:04;;;;;;;11.13;4.55;;;21.20;99.90;;;;;;5070204;28;20116;-82
2022/08/15 05:40:39;;;;;;;7.70;4.75;;;21.30;99.90;;;;;;5063040;28;20028;-83
2022/08/15 05:43:14;;;;;;;6.57;4.35;;;21.30;99.90;;;;;;5063752;28;20020;-83
2022/08/15 05:45:51;;;;;;;5.68;3.45;;;21.40;99.90;;;;;;5064003;28;20112;-83
2022/08/15 05:48:23;;;;;;;6.28;3.97;;;21.40;99.90;;;;;;5065673;28;20029;-83
2022/08/15 05:50:53;;;;;;;8.73;5.03;;;21.50;99.90;;;;;;5067113;28;20029;-83
2022/08/15 05:53:38;;;;;;;8.00;4.80;;;21.60;99.90;;;;;;5065000;28;20048;-82
2022/08/15 05:56:04;;;;;;;9.27;5.50;;;21.80;99.90;;;;;;5065345;28;20029;-82
2022/08/15 05:58:45;;;;;;;8.45;4.03;;;21.80;99.90;;;;;;5064438;28;20654;-83
2022/08/15 06:01:23;;;;;;;8.40;5.25;;;21.90;99.90;;;;;;5063373;28;20028;-82
2022/08/15 06:04:01;;;;;;;10.05;4.78;;;22.00;99.90;;;;;;5065483;28;20498;-84
2022/08/15 06:06:31;;;;;;;9.35;4.68;;;22.00;99.90;;;;;;5064452;28;20070;-79
2022/08/15 06:09:30;;;;;;;7.70;4.45;;;22.10;99.90;;;;;;5064297;28;20029;-79
2022/08/15 06:12:00;;;;;;;8.43;4.28;;;22.10;99.90;;;;;;5067110;28;20020;-79
2022/08/15 06:14:31;;;;;;;6.68;4.32;;;22.10;99.90;;;;;;5070641;28;20037;-79
2022/08/15 06:17:02;;;;;;;10.93;4.57;;;22.10;99.90;;;;;;5065921;28;20033;-77
2022/08/15 06:19:32;;;;;;;5.53;3.75;;;22.10;99.90;;;;;;5067628;28;20293;-76
2022/08/15 06:22:16;;;;;;;11.18;5.00;;;22.10;99.90;;;;;;5067478;28;20043;-76
2022/08/15 06:25:03;;;;;;;6.68;4.60;;;22.10;99.90;;;;;;5065285;28;20031;-77
2022/08/15 06:27:44;;;;;;;9.00;4.38;;;22.10;99.90;;;;;;5064330;28;21319;-77
2022/08/15 06:30:26;;;;;;;7.25;4.63;;;22.20;99.90;;;;;;5065271;28;20032;-79
2022/08/15 06:33:24;;;;;;;8.13;4.68;;;22.20;99.90;;;;;;5068778;28;20056;-88
2022/08/15 06:36:06;;;;;;;7.57;4.88;;;22.30;99.90;;;;;;5061347;28;20025;-91
2022/08/15 06:38:51;;;;;;;;;;;22.40;99.90;;;;;;5063888;28;20017;-85
2022/08/15 06:41:26;;;;;;;8.43;3.97;;;22.40;99.90;;;;;;5062088;28;19909;-87
2022/08/15 06:43:52;;;;;;;7.32;4.35;;;22.50;99.90;;;;;;5066410;28;20020;-85
2022/08/15 06:46:18;;;;;;;7.10;4.38;;;22.60;99.90;;;;;;5064469;28;20036;-81
2022/08/15 06:48:45;;;;;;;7.35;4.00;;;22.60;99.90;;;;;;5064977;28;20028;-79
2022/08/15 06:51:11;;;;;;;7.75;4.57;;;22.60;99.90;;;;;;5059509;28;20032;-78
2022/08/15 06:53:47;;;;;;;8.10;4.90;;;22.60;99.90;;;;;;5063209;28;20033;-78
2022/08/15 06:56:22;;;;;;;6.10;4.07;;;22.60;99.90;;;;;;5063131;28;20024;-79
2022/08/15 06:58:57;;;;;;;7.38;4.13;;;22.70;99.90;;;;;;5057767;28;20025;-79
2022/08/15 07:01:59;;;;;;;6.68;3.88;;;22.80;99.90;;;;;;5066929;28;20079;-79
2022/08/15 07:04:36;;;;;;;6.30;3.70;;;23.10;99.90;;;;;;5066629;28;20032;-79
2022/08/15 07:07:11;;;;;;;7.18;3.58;;;23.30;99.90;;;;;;5065652;28;20131;-79
2022/08/15 07:09:53;;;;;;;5.53;3.55;;;23.60;99.90;;;;;;5065472;28;20033;-78
2022/08/15 07:12:56;;;;;;;7.93;3.83;;;23.70;99.90;;;;;;5065914;28;20047;-77
2022/08/15 07:15:45;;;;;;;6.53;3.67;;;23.90;99.90;;;;;;5070139;28;20368;-81
2022/08/15 07:18:28;;;;;;;6.40;3.53;;;24.10;99.90;;;;;;5068988;28;20113;-80
2022/08/15 07:21:02;;;;;;;7.45;4.60;;;23.90;99.90;;;;;;5066988;28;20040;-80
2022/08/15 07:23:30;;;;;;;5.38;2.90;;;23.80;99.90;;;;;;5069722;28;20032;-80
2022/08/15 07:26:04;;;;;;;5.43;3.65;;;23.90;99.90;;;;;;5070689;28;20506;-80
2022/08/15 07:28:33;;;;;;;6.32;3.80;;;24.00;99.90;;;;;;5067338;28;20032;-80
2022/08/15 07:31:11;;;;;;;6.20;3.72;;;24.10;99.90;;;;;;5070141;28;20480;-78
2022/08/15 07:33:46;;;;;;;10.30;4.22;;;24.00;99.90;;;;;;5069291;28;20040;-81
2022/08/15 07:36:23;;;;;;;5.60;3.45;;;24.00;99.90;;;;;;5069380;28;20376;-79
2022/08/15 07:38:50;;;;;;;6.05;3.42;;;23.90;99.90;;;;;;5067304;28;20048;-78
2022/08/15 07:41:23;;;;;;;5.88;3.20;;;24.00;99.90;;;;;;5070965;28;20483;-80
2022/08/15 07:44:14;;;;;;;4.70;3.17;;;24.00;99.90;;;;;;5067570;28;20028;-80
2022/08/15 07:46:44;;;;;;;5.25;3.10;;;24.10;99.90;;;;;;5067553;28;20093;-80
2022/08/15 07:49:17;;;;;;;4.68;2.88;;;24.20;99.90;;;;;;5067127;28;20033;-79
2022/08/15 07:51:57;;;;;;;4.53;2.95;;;24.20;99.90;;;;;;5071151;28;20032;-80
2022/08/15 07:54:28;;;;;;;6.40;3.00;;;24.20;99.90;;;;;;5068112;28;20091;-79
2022/08/15 07:57:00;;;;;;;4.47;3.22;;;24.20;99.90;;;;;;5066351;28;20593;-80
2022/08/15 07:59:33;;;;;;;8.95;3.75;;;24.30;99.90;;;;;;5069257;28;20120;-79
2022/08/15 08:02:20;;;;;;;5.13;3.40;;;24.50;99.90;;;;;;5067339;28;20434;-79
2022/08/15 08:04:46;;;;;;;7.53;3.85;;;24.60;99.90;;;;;;5068203;28;20039;-79
2022/08/15 08:07:30;;;;;;;4.22;2.75;;;24.60;99.90;;;;;;5070169;28;20136;-79
2022/08/15 08:10:15;;;;;;;3.75;3.03;;;24.50;99.90;;;;;;5069238;28;20527;-79
2022/08/15 08:13:11;;;;;;;5.10;2.83;;;24.50;99.90;;;;;;5067278;28;20514;-80
2022/08/15 08:15:48;;;;;;;4.63;3.10;;;24.40;99.90;;;;;;5050290;28;20032;-80
2022/08/15 08:18:32;;;;;;;4.57;2.75;;;24.60;99.90;;;;;;5070305;28;20054;-79
2022/08/15 08:21:03;;;;;;;5.15;2.60;;;24.60;99.90;;;;;;5065969;28;20483;-80
2022/08/15 08:23:38;;;;;;;5.28;3.08;;;24.50;99.90;;;;;;5062062;28;20491;-80
2022/08/15 08:26:57;;;;;;;8.15;4.45;;;24.40;99.90;;;;;;5064990;28;20121;-79
2022/08/15 08:29:37;;;;;;;4.55;3.03;;;24.40;99.90;;;;;;4979521;28;20440;-80
2022/08/15 08:32:21;;;;;;;9.45;4.78;;;24.60;99.90;;;;;;4978000;28;20027;-79
2022/08/15 08:35:00;;;;;;;7.07;4.22;;;24.90;99.90;;;;;;5038845;28;20395;-80
2022/08/15 08:37:33;;;;;;;5.03;3.50;;;24.80;99.90;;;;;;5066039;28;20032;-79
2022/08/15 08:43:10;;;;;;;6.25;2.97;;;25.10;99.90;;;;;;5060359;28;20058;-79
2022/08/15 08:45:54;;;;;;;5.05;3.05;;;25.40;99.90;;;;;;5065222;28;20115;-79
2022/08/15 08:48:43;;;;;;;3.63;2.85;;;25.20;99.90;;;;;;5067730;28;20032;-76
2022/08/15 08:51:17;;;;;;;5.53;3.55;;;25.20;99.90;;;;;;5067682;28;20146;-76
2022/08/15 08:53:54;;;;;;;5.25;3.40;;;25.20;99.90;;;;;;5065425;28;20506;-75
2022/08/15 08:56:24;;;;;;;4.60;2.70;;;25.10;99.90;;;;;;5063046;28;20029;-86
2022/08/15 08:58:57;;;;;;;4.70;3.15;;;25.10;99.50;;;;;;5063733;28;20063;-75
2022/08/15 09:01:26;;;;;;;5.50;3.72;;;25.20;99.90;;;;;;5063773;28;20063;-78
2022/08/15 09:03:58;;;;;;;5.30;3.38;;;25.90;99.90;;;;;;5071313;28;20017;-79
2022/08/15 09:06:33;;;;;;;6.78;4.00;;;26.50;99.90;;;;;;5066762;28;20139;-78
2022/08/15 09:09:12;;;;;;;4.75;3.35;;;26.60;99.70;;;;;;5069039;28;20511;-77
2022/08/15 09:11:46;;;;;;;5.05;3.03;;;26.50;97.80;;;;;;5061129;28;20402;-77
2022/08/15 09:14:30;;;;;;;3.80;3.08;;;26.70;99.50;;;;;;5065124;28;20032;-77
2022/08/15 09:17:02;;;;;;;7.45;3.90;;;26.80;97.90;;;;;;5063853;28;20038;-78
2022/08/15 09:19:56;;;;;;;5.47;3.60;;;26.80;95.20;;;;;;5062796;28;20025;-78
2022/08/15 09:22:23;;;;;;;6.25;3.42;;;26.60;97.50;;;;;;5059845;28;20032;-78
2022/08/15 09:24:48;;;;;;;6.95;3.58;;;26.70;98.00;;;;;;5059657;28;20028;-78
2022/08/15 09:27:25;;;;;;;5.30;3.40;;;26.80;95.80;;;;;;5065611;28;20032;-78
2022/08/15 09:30:01;;;;;;;4.97;3.67;;;26.90;96.60;;;;;;5068084;28;20032;-77
2022/08/15 09:32:26;;;;;;;4.25;3.20;;;27.00;95.90;;;;;;5066622;28;20036;-78
2022/08/15 09:35:28;;;;;;;5.28;3.70;;;27.00;94.80;;;;;;5061916;28;20028;-78
2022/08/15 09:38:47;;;;;;;5.68;3.42;;;27.10;95.60;;;;;;5047941;28;20495;-77
2022/08/15 09:41:33;;;;;;;6.30;4.03;;;27.70;94.00;;;;;;5005941;28;20399;-79
2022/08/15 09:44:10;;;;;;;6.97;3.40;;;27.80;93.90;;;;;;5058307;28;20041;-78
2022/08/15 09:46:54;;;;;;;4.78;3.25;;;28.20;94.00;;;;;;5061406;28;20115;-79
2022/08/15 09:50:00;;;;;;;6.60;3.20;;;28.50;91.50;;;;;;5060544;28;20037;-79
2022/08/15 09:52:37;;;;;;;7.63;3.65;;;28.30;90.20;;;;;;5058788;28;20032;-79
2022/08/15 09:55:20;;;;;;;5.45;3.60;;;28.10;91.50;;;;;;5063489;28;20033;-80
2022/08/15 09:57:51;;;;;;;5.72;4.03;;;27.90;90.70;;;;;;5063333;28;20028;-79
2022/08/15 10:00:39;;;;;;;5.22;3.40;;;28.00;90.20;;;;;;5055257;28;20041;-80
2022/08/15 10:03:45;;;;;;;6.72;3.88;;;28.10;88.90;;;;;;5058510;28;20922;-77
2022/08/15 10:06:15;;;;;;;4.07;2.83;;;28.00;90.20;;;;;;5056580;28;20055;-78
2022/08/15 10:09:27;;;;;;;5.85;3.63;;;27.80;90.10;;;;;;5065052;28;20076;-79
2022/08/15 10:12:18;;;;;;;4.47;3.60;;;27.50;90.80;;;;;;5037455;28;20036;-77
2022/08/15 10:14:53;;;;;;;9.02;4.25;;;27.40;91.40;;;;;;5059726;28;20043;-78
2022/08/15 10:17:37;;;;;;;4.72;3.20;;;27.50;91.40;;;;;;5067992;28;20029;-83
2022/08/15 10:20:14;;;;;;;5.40;3.60;;;27.50;90.50;;;;;;5060686;28;20024;-77
2022/08/15 10:22:51;;;;;;;5.30;3.35;;;27.60;92.30;;;;;;5055961;28;20142;-77
2022/08/15 10:25:17;;;;;;;5.22;3.40;;;27.60;91.50;;;;;;5058097;28;20051;-83
2022/08/15 10:27:53;;;;;;;4.70;3.60;;;27.80;90.10;;;;;;5064279;28;20475;-81
2022/08/15 10:30:20;;;;;;;5.28;3.50;;;28.50;90.50;;;;;;5062058;28;20052;-81
2022/08/15 10:32:46;;;;;;;3.72;3.03;;;29.00;86.90;;;;;;5058914;28;20029;-81
2022/08/15 10:35:28;;;;;;;4.10;2.88;;;29.00;85.60;;;;;;5059850;28;20494;-83
2022/08/15 10:38:03;;;;;;;5.50;3.60;;;28.80;84.90;;;;;;5051376;28;20029;-81
2022/08/15 10:40:36;;;;;;;5.30;3.13;;;28.60;87.30;;;;;;5055628;28;20028;-81
2022/08/15 10:43:19;;;;;;;4.88;3.20;;;28.50;87.90;;;;;;5056989;28;20039;-80
2022/08/15 10:46:08;;;;;;;3.60;2.92;;;28.60;87.30;;;;;;5048307;28;20668;-74
2022/08/15 10:49:02;;;;;;;5.18;3.17;;;28.50;82.80;;;;;;4998940;28;20507;-74
2022/08/15 10:51:53;;;;;;;4.90;3.50;;;28.30;85.50;;;;;;5060834;28;20662;-74
2022/08/15 10:54:40;;;;;;;5.17;3.57;;;28.10;86.00;;;;;;5051821;28;20674;-75
2022/08/15 10:57:07;;;;;;;4.75;2.72;;;28.50;85.20;;;;;;5053938;28;20024;-75
2022/08/15 10:59:42;;;;;;;3.38;2.70;;;28.50;85.10;;;;;;5060332;28;20076;-73
2022/08/15 11:02:49;;;;;;;4.00;3.10;;;28.80;81.30;;;;;;5060358;28;20029;-74
2022/08/15 11:05:17;;;;;;;4.72;2.83;;;28.70;81.70;;;;;;5061193;28;20028;-75
2022/08/15 11:07:49;;;;;;;4.40;3.22;;;28.60;84.20;;;;;;5062042;28;20036;-74
2022/08/15 11:10:17;;;;;;;3.83;3.00;;;28.70;81.00;;;;;;5066809;28;20024;-75
2022/08/15 11:12:52;;;;;;;7.65;3.40;;;28.70;82.60;;;;;;5066770;28;20054;-75
2022/08/15 11:15:20;;;;;;;5.57;3.72;;;28.60;81.10;;;;;;5064148;28;20120;-75
2022/08/15 11:17:50;;;;;;;5.93;3.58;;;28.60;82.70;;;;;;5063590;28;20086;-76
2022/08/15 11:20:21;;;;;;;3.95;3.05;;;28.60;80.80;;;;;;5066212;28;20025;-76
2022/08/15 11:22:51;;;;;;;8.02;3.60;;;28.50;82.00;;;;;;5064394;28;20028;-75
2022/08/15 11:25:21;;;;;;;5.50;3.33;;;28.60;84.00;;;;;;5065986;28;20028;-76
2022/08/15 11:28:20;;;;;;;5.63;3.60;;;28.50;83.00;;;;;;5061765;28;20048;-75
2022/08/15 11:30:47;;;;;;;6.80;3.50;;;28.70;81.00;;;;;;5064389;28;20043;-75
2022/08/15 11:33:26;;;;;;;4.30;3.47;;;29.20;83.30;;;;;;5065479;28;20135;-75
2022/08/15 11:36:19;;;;;;;3.85;3.20;;;29.60;80.60;;;;;;5067891;28;20071;-76
2022/08/15 11:38:58;;;;;;;5.03;3.60;;;30.40;76.70;;;;;;5065185;28;20032;-75
2022/08/15 11:41:28;;;;;;;5.13;3.42;;;30.70;76.20;;;;;;5067005;28;20039;-76
2022/08/15 11:43:58;;;;;;;4.68;3.60;;;29.90;74.50;;;;;;5065147;28;20033;-76
2022/08/15 11:46:25;;;;;;;4.55;3.35;;;30.00;78.90;;;;;;5063967;28;20578;-76
2022/08/15 11:49:08;;;;;;;4.82;3.28;;;30.40;74.60;;;;;;5064111;28;20048;-76
2022/08/15 11:51:37;;;;;;;4.95;3.42;;;30.40;71.50;;;;;;5066587;28;20445;-77
2022/08/15 11:54:11;;;;;;;5.28;3.35;;;30.00;73.10;;;;;;5064691;28;20059;-76
2022/08/15 11:56:44;;;;;;;5.13;3.67;;;30.60;71.50;;;;;;5059486;28;20028;-81
2022/08/15 11:59:31;;;;;;;5.75;3.83;;;31.30;68.00;;;;;;5061944;28;20013;-83
2022/08/15 12:02:20;;;;;;;3.45;3.15;;;30.90;69.70;;;;;;5058989;28;20107;-82
2022/08/15 12:04:48;;;;;;;4.85;3.60;;;30.70;70.90;;;;;;5056463;28;20407;-82
2022/08/15 12:07:29;;;;;;;4.40;3.28;;;30.90;68.30;;;;;;5065965;28;20074;-82
2022/08/15 12:10:05;;;;;;;4.50;3.45;;;30.30;70.40;;;;;;5064820;28;20033;-81
2022/08/15 12:12:36;;;;;;;6.50;3.70;;;29.60;71.80;;;;;;5065650;28;20093;-79
2022/08/15 12:15:20;;;;;;;3.40;2.95;;;30.10;72.20;;;;;;5059602;28;20036;-76
2022/08/15 12:18:03;;;;;;;5.80;3.90;;;30.00;70.90;;;;;;5061001;28;20035;-76
2022/08/15 12:20:47;;;;;;;4.60;3.35;;;30.50;70.00;;;;;;5062906;28;20712;-75
2022/08/15 12:23:35;;;;;;;6.90;3.60;;;31.00;66.80;;;;;;5066139;28;20121;-77
2022/08/15 12:26:23;;;;;;;5.72;3.42;;;30.90;66.60;;;;;;5064100;28;20024;-75
2022/08/15 12:28:48;;;;;;;5.22;3.47;;;30.70;66.90;;;;;;5060004;28;20032;-76
2022/08/15 12:31:24;;;;;;;4.43;3.47;;;30.10;68.10;;;;;;5061170;28;20032;-76
2022/08/15 12:34:11;;;;;;;4.05;3.35;;;29.70;71.20;;;;;;5064570;28;20415;-76
2022/08/15 12:36:39;;;;;;;6.60;3.88;;;31.10;67.90;;;;;;5066280;28;20028;-75
2022/08/15 12:39:05;;;;;;;5.05;4.18;;;31.10;65.50;;;;;;5064632;28;20037;-76
2022/08/15 12:41:31;;;;;;;4.60;3.50;;;30.30;68.30;;;;;;5062342;28;20372;-77
2022/08/15 12:43:57;;;;;;;4.25;3.85;;;30.60;69.20;;;;;;5066248;28;20021;-79
2022/08/15 12:46:23;;;;;;;5.93;3.45;;;30.40;68.80;;;;;;5061407;28;20020;-78
2022/08/15 12:48:49;;;;;;;4.07;3.45;;;30.30;69.90;;;;;;5061614;28;20058;-75
2022/08/15 12:51:16;;;;;;;4.60;3.65;;;30.70;68.20;;;;;;5064311;28;20032;-76
2022/08/15 12:53:42;;;;;;;4.60;3.65;;;29.70;69.80;;;;;;5065435;28;20033;-77
2022/08/15 12:56:08;;;;;;;4.95;3.78;;;29.30;72.50;;;;;;5064595;28;20445;-79
2022/08/15 12:58:36;;;;;;;5.75;3.50;;;29.00;72.70;;;;;;5062760;28;20024;-79
2022/08/15 13:01:10;;;;;;;4.20;3.38;;;29.50;71.10;;;;;;5064754;28;20029;-75
2022/08/15 13:03:41;;;;;;;4.72;4.05;;;30.40;69.50;;;;;;5064980;28;20031;-76
2022/08/15 13:06:14;;;;;;;5.60;4.13;;;31.70;66.30;;;;;;5062521;28;20663;-77
2022/08/15 13:08:42;;;;;;;3.83;3.10;;;33.40;61.30;;;;;;5063934;28;20013;-77
2022/08/15 13:11:10;;;;;;;4.63;3.65;;;34.90;58.00;;;;;;5064679;28;20044;-78
2022/08/15 13:13:36;;;;;;;4.25;3.47;;;34.10;57.10;;;;;;5066293;28;20107;-75
2022/08/15 13:16:08;;;;;;;6.20;4.07;;;33.70;57.70;;;;;;5065459;28;20461;-76
2022/08/15 13:18:36;;;;;;;4.53;3.70;;;33.60;59.50;;;;;;5063677;28;20474;-76
2022/08/15 13:23:51;;;;;;;5.25;3.72;;;32.40;61.80;;;;;;5067022;28;20074;-76
2022/08/15 13:26:22;;;;;;;5.90;4.43;;;33.10;59.40;;;;;;5061440;28;20036;-76
2022/08/15 13:28:50;;;;;;;4.55;3.60;;;31.20;64.00;;;;;;5056319;28;20043;-76